Terminal Aerodrome Forecast
Issued by NWS

Home | Current Version | Previous Version | Text Only | Print | Product List | Glossary On
Versions: 1 2 3 4 5 6 7 8 9 10 11 12 13 14 15 16 17 18 19 20 21 22 23 24 25 26 27 28 29 30 31 32 33 34 35 36 37 38 39 40 41 42 43 44
000
FTUS45 KBOU 241740
TAFAPA
TAF
KAPA 241740Z 2418/2518 06005KT P6SM VCSH SCT007 OVC012
      TEMPO 2418/2420 4SM -DZ BR BKN006
     FM242000 05009KT P6SM VCSH SCT012 OVC020
      TEMPO 2420/2424 5SM -SHRA BR BKN009
     FM250000 02008KT P6SM VCSH BKN012 OVC020
      TEMPO 2500/2504 4SM -SHRA BR BKN006
     FM250400 04004KT 4SM BR OVC006
     FM251100 03005KT 2SM BR OVC004
     FM251700 08006KT 6SM BR BKN009 BKN020=

USA.gov is the U.S. government's official web portal to all federal, state and local government web resources and services.